createdAt,value
2018-12-21T00:00:06.355Z,1.73
2018-12-21T00:02:38.485Z,1.70
2018-12-21T00:05:07.725Z,1.90
2018-12-21T00:07:36.910Z,2.13
2018-12-21T00:10:07.405Z,2.00
2018-12-21T00:12:37.506Z,1.70
2018-12-21T00:15:07.606Z,2.00
2018-12-21T00:17:36.755Z,2.00
2018-12-21T00:21:38.492Z,2.00
2018-12-21T00:24:07.690Z,2.47
2018-12-21T00:26:37.335Z,2.50
2018-12-21T00:29:07.112Z,2.07
2018-12-21T00:31:41.609Z,2.60
2018-12-21T00:34:16.011Z,1.90
2018-12-21T00:36:51.028Z,2.30
2018-12-21T00:39:25.382Z,2.00
2018-12-21T00:41:53.735Z,1.87
2018-12-21T00:44:37.272Z,1.63
2018-12-21T00:47:14.043Z,1.80
2018-12-21T00:49:43.491Z,2.10
2018-12-21T00:52:13.053Z,2.33
2018-12-21T00:54:42.255Z,1.97
2018-12-21T00:57:11.908Z,2.00
2018-12-21T00:59:41.049Z,1.93
2018-12-21T01:02:10.246Z,1.67
2018-12-21T01:04:39.809Z,1.87
2018-12-21T01:07:09.009Z,2.10
2018-12-21T01:09:38.910Z,2.00
2018-12-21T01:12:10.162Z,2.23
2018-12-21T01:14:40.192Z,1.93
2018-12-21T01:17:09.518Z,2.23
2018-12-21T01:19:38.756Z,2.27
2018-12-21T01:22:09.477Z,1.93
2018-12-21T01:24:38.686Z,1.93
2018-12-21T01:27:08.044Z,2.23
2018-12-21T01:29:37.226Z,2.10
2018-12-21T01:32:07.014Z,1.97
2018-12-21T01:34:36.860Z,1.87
2018-12-21T01:37:06.026Z,2.47
2018-12-21T01:39:35.320Z,1.90
2018-12-21T01:42:04.610Z,1.90
2018-12-21T01:44:33.801Z,1.90
2018-12-21T01:47:03.431Z,2.53
2018-12-21T01:49:33.657Z,3.13
2018-12-21T01:52:02.881Z,2.00
2018-12-21T01:54:32.057Z,1.87
2018-12-21T01:57:01.299Z,2.10
2018-12-21T01:59:31.137Z,2.00
2018-12-21T02:02:00.438Z,2.23
2018-12-21T02:04:29.721Z,1.90
2018-12-21T02:11:36.671Z,2.00
2018-12-21T02:14:07.570Z,2.13
2018-12-21T02:16:36.725Z,1.90
2018-12-21T02:19:06.094Z,2.00
2018-12-21T02:21:35.268Z,2.17
2018-12-21T02:24:05.402Z,1.73
2018-12-21T02:26:34.887Z,1.80
2018-12-21T02:29:04.199Z,2.23
2018-12-21T02:31:33.361Z,1.97
2018-12-21T02:34:02.703Z,1.90
2018-12-21T02:36:32.428Z,1.90
2018-12-21T02:39:01.855Z,1.80
2018-12-21T02:41:31.203Z,1.70
2018-12-21T02:44:00.364Z,1.80
2018-12-21T02:46:29.604Z,2.07
2018-12-21T02:48:59.317Z,1.90
2018-12-21T02:51:28.515Z,2.03
2018-12-21T02:53:57.668Z,1.80
2018-12-21T02:56:28.149Z,2.07
2018-12-21T02:58:57.341Z,1.70
2018-12-21T03:01:26.896Z,1.80
2018-12-21T03:03:56.070Z,2.00
2018-12-21T03:06:25.387Z,1.70
2018-12-21T03:08:54.551Z,2.00
2018-12-21T03:11:23.827Z,2.20
2018-12-21T03:13:54.651Z,1.80
2018-12-21T03:16:24.971Z,1.83
2018-12-21T03:18:54.172Z,1.60
2018-12-21T03:21:23.322Z,1.70
2018-12-21T03:23:52.508Z,2.33
2018-12-21T03:26:22.776Z,1.53
2018-12-21T03:28:51.988Z,1.90
2018-12-21T03:31:21.245Z,2.40
2018-12-21T03:33:50.413Z,1.80
2018-12-21T03:36:19.601Z,2.13
2018-12-21T03:38:50.536Z,1.50
2018-12-21T03:41:19.696Z,1.70
2018-12-21T03:43:48.850Z,1.60
2018-12-21T03:46:18.053Z,1.70
2018-12-21T03:48:47.283Z,1.60
2018-12-21T03:51:17.228Z,1.80
2018-12-21T03:53:46.706Z,1.73
2018-12-21T03:56:15.999Z,1.53
2018-12-21T03:58:45.134Z,1.40
2018-12-21T04:01:14.970Z,1.23
2018-12-21T04:03:44.655Z,1.30
2018-12-21T04:06:13.828Z,1.30
2018-12-21T04:08:43.042Z,1.43
2018-12-21T04:11:12.186Z,1.30
2018-12-21T04:13:41.458Z,1.40
2018-12-21T04:16:12.116Z,1.47
2018-12-21T04:18:42.888Z,1.60
2018-12-21T04:21:12.976Z,1.53
2018-12-21T04:23:42.271Z,1.90
2018-12-21T04:26:11.476Z,2.17
2018-12-21T04:28:41.636Z,1.60
2018-12-21T04:31:10.839Z,1.57
2018-12-21T04:33:40.135Z,1.70
2018-12-21T04:36:09.399Z,1.60
2018-12-21T04:38:38.640Z,1.67
2018-12-21T04:41:08.402Z,1.40
2018-12-21T04:43:37.832Z,1.87
2018-12-21T04:46:07.055Z,1.80
2018-12-21T04:48:36.262Z,1.70
2018-12-21T04:51:05.507Z,1.60
2018-12-21T04:53:35.203Z,1.57
2018-12-21T04:56:04.545Z,1.33
2018-12-21T04:58:33.911Z,1.27
2018-12-21T05:01:03.153Z,1.47
2018-12-21T05:03:32.394Z,1.47
2018-12-21T05:06:02.198Z,1.30
2018-12-21T05:08:31.387Z,1.10
2018-12-21T05:11:00.584Z,0.90
2018-12-21T05:13:29.798Z,1.27
2018-12-21T05:15:59.086Z,0.90
2018-12-21T05:18:28.797Z,1.40
2018-12-21T05:20:58.246Z,1.00
2018-12-21T05:23:27.456Z,0.70
2018-12-21T05:25:56.739Z,0.70
2018-12-21T05:28:26.602Z,0.90
2018-12-21T05:30:56.382Z,0.67
2018-12-21T05:33:25.599Z,0.57
2018-12-21T05:35:54.930Z,0.90
2018-12-21T05:38:24.106Z,0.80
2018-12-21T05:40:53.310Z,0.70
2018-12-21T05:43:23.636Z,0.80
2018-12-21T05:45:53.095Z,0.90
2018-12-21T05:48:22.482Z,0.70
2018-12-21T05:50:51.859Z,0.70
2018-12-21T05:53:21.039Z,0.70
2018-12-21T05:55:51.117Z,0.80
2018-12-21T05:58:20.451Z,0.77
2018-12-21T06:00:49.639Z,0.60
2018-12-21T06:03:18.811Z,1.00
2018-12-21T06:05:48.374Z,0.80
2018-12-21T06:08:18.054Z,0.60
2018-12-21T06:10:47.261Z,0.73
2018-12-21T06:13:16.587Z,0.80
2018-12-21T06:15:46.117Z,0.70
2018-12-21T06:18:15.425Z,0.90
2018-12-21T06:20:46.111Z,0.90
2018-12-21T06:23:16.276Z,0.80
2018-12-21T06:25:45.483Z,0.70
2018-12-21T06:28:14.792Z,0.70
2018-12-21T06:30:43.943Z,0.80
2018-12-21T06:33:13.727Z,0.90
2018-12-21T06:35:44.204Z,0.70
2018-12-21T06:38:13.399Z,0.70
2018-12-21T06:40:42.604Z,0.87
2018-12-21T06:43:11.926Z,0.80
2018-12-21T06:45:41.638Z,0.80
2018-12-21T06:48:11.351Z,0.70
2018-12-21T06:50:40.603Z,0.80
2018-12-21T06:53:17.756Z,0.70
2018-12-21T06:55:41.123Z,0.97
2018-12-21T06:59:39.986Z,1.00
2018-12-21T07:02:09.336Z,0.80
2018-12-21T07:04:38.578Z,0.70
2018-12-21T07:07:07.828Z,0.90
2018-12-21T07:09:38.708Z,0.70
2018-12-21T07:12:07.953Z,0.90
2018-12-21T07:14:37.367Z,0.80
2018-12-21T07:17:06.683Z,0.60
2018-12-21T07:19:35.927Z,0.60
2018-12-21T07:22:05.822Z,0.90
2018-12-21T07:24:36.136Z,0.90
2018-12-21T07:27:05.291Z,0.67
2018-12-21T07:29:34.655Z,0.80
2018-12-21T07:32:05.017Z,0.60
2018-12-21T07:34:34.668Z,0.70
2018-12-21T07:37:04.036Z,0.70
2018-12-21T07:39:33.451Z,0.80
2018-12-21T07:42:04.403Z,0.70
2018-12-21T07:44:33.658Z,0.70
2018-12-21T07:47:03.434Z,0.63
2018-12-21T07:49:32.691Z,0.60
2018-12-21T07:52:01.903Z,0.80
2018-12-21T07:54:31.154Z,0.77
2018-12-21T07:57:00.371Z,0.90
2018-12-21T07:59:30.259Z,0.80
2018-12-21T08:01:59.867Z,0.70
2018-12-21T08:04:30.290Z,0.80
2018-12-21T08:06:59.790Z,0.90
2018-12-21T08:09:29.133Z,0.80
2018-12-21T08:11:58.856Z,0.60
2018-12-21T08:14:28.095Z,0.60
2018-12-21T08:16:57.311Z,0.60
2018-12-21T08:19:26.675Z,0.80
2018-12-21T08:21:55.872Z,0.60
2018-12-21T08:24:25.483Z,0.93
2018-12-21T08:26:56.749Z,0.83
2018-12-21T08:29:25.942Z,0.80
2018-12-21T08:31:55.208Z,0.73
2018-12-21T08:34:24.518Z,0.63
2018-12-21T08:36:55.277Z,0.87
2018-12-21T08:39:24.543Z,0.77
2018-12-21T08:41:53.783Z,0.90
2018-12-21T08:44:23.507Z,0.73
2018-12-21T08:46:52.705Z,0.80
2018-12-21T08:49:22.438Z,0.70
2018-12-21T08:51:51.760Z,15.63
2018-12-21T08:54:21.058Z,16.20
2018-12-21T08:56:50.222Z,0.90
2018-12-21T08:59:20.010Z,0.90
2018-12-21T09:01:50.039Z,0.93
2018-12-21T09:04:19.273Z,1.00
2018-12-21T09:06:48.455Z,1.50
2018-12-21T09:09:20.973Z,1.10
2018-12-21T09:11:51.735Z,0.87
2018-12-21T09:14:21.093Z,0.90
2018-12-21T09:16:52.188Z,1.00
2018-12-21T09:19:22.119Z,1.20
2018-12-21T09:21:52.799Z,0.90
2018-12-21T09:24:22.551Z,0.80
2018-12-21T09:26:52.176Z,1.07
2018-12-21T09:29:23.586Z,1.00
2018-12-21T09:31:52.783Z,0.97
2018-12-21T09:34:22.461Z,1.00
2018-12-21T09:36:53.378Z,1.00
2018-12-21T09:39:22.574Z,1.30
2018-12-21T09:41:51.855Z,1.00
2018-12-21T09:44:22.362Z,1.10
2018-12-21T09:46:52.731Z,1.00
2018-12-21T09:49:22.112Z,29.97
2018-12-21T09:51:52.470Z,25.53
2018-12-21T09:54:22.540Z,1.00
2018-12-21T09:56:52.303Z,0.80
2018-12-21T09:59:25.006Z,1.10
2018-12-21T10:01:55.112Z,0.80
2018-12-21T10:04:24.815Z,0.90
2018-12-21T10:06:55.545Z,1.00
2018-12-21T10:09:25.526Z,0.90
2018-12-21T10:11:54.766Z,1.20
2018-12-21T10:14:23.975Z,1.10
2018-12-21T10:16:53.272Z,0.70
2018-12-21T10:19:22.648Z,0.70
2018-12-21T10:21:52.600Z,0.80
2018-12-21T10:24:22.898Z,0.80
2018-12-21T10:26:52.600Z,0.90
2018-12-21T10:29:28.352Z,1.00
2018-12-21T10:32:01.396Z,1.13
2018-12-21T10:34:32.105Z,1.30
2018-12-21T10:37:02.358Z,1.30
2018-12-21T10:39:32.196Z,1.40
2018-12-21T10:42:02.507Z,1.50
2018-12-21T10:44:31.687Z,1.23
2018-12-21T10:47:02.198Z,1.40
2018-12-21T10:49:32.051Z,1.17
2018-12-21T10:52:02.460Z,1.60
2018-12-21T10:54:32.556Z,1.67
2018-12-21T10:57:01.762Z,1.40
2018-12-21T10:59:31.244Z,0.90
2018-12-21T11:02:01.309Z,0.80
2018-12-21T11:04:34.226Z,0.63
2018-12-21T11:07:06.861Z,0.63
2018-12-21T11:09:38.522Z,0.60
2018-12-21T11:12:09.884Z,0.70
2018-12-21T11:14:39.515Z,0.50
2018-12-21T11:17:11.166Z,0.70
2018-12-21T11:19:40.538Z,0.90
2018-12-21T11:22:10.206Z,1.00
2018-12-21T11:24:42.634Z,1.10
2018-12-21T11:27:14.317Z,1.00
2018-12-21T11:29:45.002Z,1.00
2018-12-21T11:32:14.293Z,0.70
2018-12-21T11:34:43.833Z,0.70
2018-12-21T11:37:13.401Z,0.80
2018-12-21T11:39:44.366Z,0.80
2018-12-21T11:42:15.112Z,0.87
2018-12-21T11:44:45.216Z,0.70
2018-12-21T11:47:14.906Z,0.80
2018-12-21T11:49:46.443Z,0.90
2018-12-21T11:52:17.759Z,1.10
2018-12-21T11:54:47.346Z,1.00
2018-12-21T11:57:17.284Z,1.10
2018-12-21T11:59:46.807Z,1.00
2018-12-21T12:02:19.788Z,0.93
2018-12-21T12:04:49.087Z,1.00
2018-12-21T12:07:24.433Z,6.47
2018-12-21T12:09:55.321Z,15.83
2018-12-21T12:12:24.747Z,0.90
2018-12-21T12:14:54.696Z,1.30
2018-12-21T12:17:27.503Z,0.90
2018-12-21T12:19:58.860Z,1.13
2018-12-21T12:22:28.492Z,0.87
2018-12-21T12:24:59.590Z,0.97
2018-12-21T12:27:30.031Z,0.80
2018-12-21T12:30:04.020Z,0.80
2018-12-21T12:32:34.527Z,0.70
2018-12-21T12:35:10.271Z,1.00
2018-12-21T12:37:45.560Z,0.70
2018-12-21T12:40:15.546Z,0.87
2018-12-21T12:42:48.011Z,0.97
2018-12-21T12:45:18.933Z,0.97
2018-12-21T12:47:48.186Z,1.43
2018-12-21T12:50:17.429Z,1.10
2018-12-21T12:52:48.427Z,1.00
2018-12-21T12:55:18.351Z,1.50
2018-12-21T12:57:48.507Z,1.17
2018-12-21T13:00:20.376Z,0.90
2018-12-21T13:02:50.525Z,1.00
2018-12-21T13:05:21.317Z,1.30
2018-12-21T13:07:51.206Z,1.00
2018-12-21T13:10:23.634Z,0.97
2018-12-21T13:12:55.619Z,0.80
2018-12-21T13:15:28.536Z,0.70
2018-12-21T13:18:02.791Z,0.90
2018-12-21T13:20:34.712Z,1.60
2018-12-21T13:23:05.639Z,1.13
2018-12-21T13:25:37.632Z,0.80
2018-12-21T13:28:07.704Z,1.50
2018-12-21T13:30:40.631Z,1.40
2018-12-21T13:33:11.391Z,1.80
2018-12-21T13:35:41.551Z,1.90
2018-12-21T13:38:11.979Z,2.27
2018-12-21T13:40:41.265Z,2.40
2018-12-21T13:43:13.530Z,1.40
2018-12-21T13:45:42.832Z,1.90
2018-12-21T13:48:13.692Z,1.93
2018-12-21T13:50:42.966Z,1.20
2018-12-21T13:53:15.470Z,1.10
2018-12-21T13:55:45.304Z,0.80
2018-12-21T13:58:19.252Z,1.10
2018-12-21T14:00:52.155Z,1.00
2018-12-21T14:03:21.426Z,1.20
2018-12-21T14:05:51.687Z,0.90
2018-12-21T14:08:21.503Z,0.90
2018-12-21T14:10:50.699Z,0.90
2018-12-21T14:13:19.945Z,1.20
2018-12-21T14:15:50.611Z,1.40
2018-12-21T14:18:21.402Z,1.83
2018-12-21T14:20:52.100Z,1.00
2018-12-21T14:23:21.298Z,1.50
2018-12-21T14:25:50.661Z,1.80
2018-12-21T14:28:21.495Z,1.73
2018-12-21T14:32:21.987Z,1.77
2018-12-21T14:34:53.462Z,1.30
2018-12-21T14:37:23.231Z,1.30
2018-12-21T14:39:53.044Z,1.50
2018-12-21T14:42:22.822Z,1.57
2018-12-21T14:44:55.103Z,2.30
2018-12-21T14:47:24.400Z,1.80
2018-12-21T14:49:55.861Z,1.10
2018-12-21T14:52:25.600Z,1.13
2018-12-21T14:54:54.775Z,1.20
2018-12-21T14:57:24.044Z,1.23
2018-12-21T14:59:56.418Z,1.00
2018-12-21T15:02:27.892Z,0.97
2018-12-21T15:05:04.913Z,1.10
2018-12-21T15:07:37.196Z,1.50
2018-12-21T15:10:09.494Z,1.27
2018-12-21T15:12:39.208Z,1.20
2018-12-21T15:15:11.034Z,1.30
2018-12-21T15:17:41.184Z,1.30
2018-12-21T15:20:14.712Z,2.50
2018-12-21T15:22:44.588Z,1.93
2018-12-21T15:25:13.873Z,1.40
2018-12-21T15:27:43.323Z,1.80
2018-12-21T15:30:13.816Z,1.77
2018-12-21T15:32:45.374Z,2.07
2018-12-21T15:35:15.807Z,2.13
2018-12-21T15:37:45.559Z,2.30
2018-12-21T15:40:14.876Z,2.50
2018-12-21T15:42:44.680Z,2.50
2018-12-21T15:45:14.462Z,2.87
2018-12-21T15:47:45.001Z,2.50
2018-12-21T15:50:15.264Z,3.00
2018-12-21T15:52:48.371Z,2.33
2018-12-21T15:55:18.751Z,2.90
2018-12-21T15:57:48.836Z,2.70
2018-12-21T16:00:18.239Z,2.93
2018-12-21T16:02:54.614Z,3.00
2018-12-21T16:05:25.654Z,3.07
2018-12-21T16:07:55.300Z,3.10
2018-12-21T16:10:24.700Z,2.83
2018-12-21T16:12:53.947Z,3.67
2018-12-21T16:15:23.198Z,3.60
2018-12-21T16:17:54.266Z,3.73
2018-12-21T16:20:24.461Z,3.70
2018-12-21T16:22:54.419Z,3.10
2018-12-21T16:25:24.300Z,3.80
2018-12-21T16:27:54.877Z,3.80
2018-12-21T16:30:26.910Z,3.50
2018-12-21T16:33:02.251Z,4.57
2018-12-21T16:35:31.501Z,4.17
2018-12-21T16:38:01.926Z,3.93
2018-12-21T16:40:31.939Z,4.57
2018-12-21T16:43:02.599Z,4.40
2018-12-21T16:45:36.425Z,3.53
2018-12-21T16:48:11.313Z,4.30
2018-12-21T16:50:42.918Z,4.17
2018-12-21T16:53:12.224Z,4.20
2018-12-21T16:55:42.774Z,4.17
2018-12-21T16:58:13.786Z,4.10
2018-12-21T17:00:46.189Z,3.90
2018-12-21T17:03:15.796Z,4.17
2018-12-21T17:05:45.222Z,4.20
2018-12-21T17:08:14.602Z,3.87
2018-12-21T17:10:45.838Z,3.43
2018-12-21T17:13:15.367Z,3.87
2018-12-21T17:15:45.262Z,4.53
2018-12-21T17:18:17.825Z,3.73
2018-12-21T17:20:51.269Z,4.77
2018-12-21T17:23:21.711Z,5.40
2018-12-21T17:25:51.904Z,5.47
2018-12-21T17:28:22.024Z,4.63
2018-12-21T17:30:52.230Z,5.23
2018-12-21T17:33:23.600Z,5.30
2018-12-21T17:35:53.699Z,4.93
2018-12-21T17:38:23.019Z,4.87
2018-12-21T17:40:54.559Z,4.40
2018-12-21T17:43:24.578Z,4.90
2018-12-21T17:45:54.970Z,5.33
2018-12-21T17:48:31.648Z,5.43
2018-12-21T17:51:01.329Z,4.67
2018-12-21T17:53:30.745Z,5.00
2018-12-21T17:56:00.567Z,4.67
2018-12-21T17:58:30.396Z,5.47
2018-12-21T18:01:00.190Z,4.80
2018-12-21T18:03:41.590Z,5.27
2018-12-21T18:06:10.789Z,4.53
2018-12-21T18:08:40.559Z,4.83
2018-12-21T18:11:09.911Z,4.43
2018-12-21T18:13:39.250Z,4.83
2018-12-21T18:16:09.163Z,5.47
2018-12-21T18:18:38.587Z,4.93
2018-12-21T18:21:09.155Z,5.23
2018-12-21T18:23:41.083Z,4.47
2018-12-21T18:26:10.889Z,4.73
2018-12-21T18:28:40.230Z,5.47
2018-12-21T18:31:19.232Z,5.77
2018-12-21T18:33:49.607Z,6.00
2018-12-21T18:36:19.379Z,5.50
2018-12-21T18:38:49.080Z,5.53
2018-12-21T18:41:19.194Z,5.53
2018-12-21T18:43:49.368Z,6.27
2018-12-21T18:46:19.319Z,6.63
2018-12-21T18:48:53.971Z,6.23
2018-12-21T18:51:24.191Z,5.90
2018-12-21T18:53:55.009Z,6.07
2018-12-21T18:56:28.045Z,6.47
2018-12-21T18:58:58.667Z,5.60
2018-12-21T19:01:29.356Z,5.40
2018-12-21T19:04:00.175Z,5.60
2018-12-21T19:06:29.407Z,5.17
2018-12-21T19:09:00.395Z,6.10
2018-12-21T19:11:30.407Z,5.07
2018-12-21T19:14:03.219Z,6.00
2018-12-21T19:16:32.991Z,5.80
2018-12-21T19:19:02.846Z,5.20
2018-12-21T19:21:33.655Z,5.30
2018-12-21T19:24:04.825Z,5.43
2018-12-21T19:26:35.501Z,4.93
2018-12-21T19:29:06.935Z,5.17
2018-12-21T19:31:44.650Z,5.60
2018-12-21T19:34:20.979Z,5.70
2018-12-21T19:36:56.755Z,5.30
2018-12-21T19:39:30.797Z,5.00
2018-12-21T19:42:05.930Z,6.03
2018-12-21T19:44:37.606Z,5.53
2018-12-21T19:47:11.047Z,6.43
2018-12-21T19:49:43.197Z,5.47
2018-12-21T19:52:12.836Z,6.57
2018-12-21T19:54:45.774Z,5.27
2018-12-21T19:57:15.871Z,6.23
2018-12-21T19:59:45.592Z,6.27
2018-12-21T20:02:15.639Z,6.43
2018-12-21T20:04:45.497Z,5.50
2018-12-21T20:07:15.086Z,5.47
2018-12-21T20:09:44.639Z,6.03
2018-12-21T20:12:15.449Z,5.07
2018-12-21T20:14:44.656Z,5.37
2018-12-21T20:17:13.887Z,6.10
2018-12-21T20:19:45.925Z,5.77
2018-12-21T20:22:15.150Z,5.80
2018-12-21T20:24:48.055Z,5.13
2018-12-21T20:27:21.459Z,5.27
2018-12-21T20:29:55.618Z,5.80
2018-12-21T20:32:27.273Z,5.90
2018-12-21T20:35:01.285Z,5.40
2018-12-21T20:37:34.410Z,6.57
2018-12-21T20:40:11.612Z,6.53
2018-12-21T20:42:47.866Z,6.10
2018-12-21T20:45:21.263Z,5.77
2018-12-21T20:47:53.640Z,6.13
2018-12-21T20:50:23.742Z,5.73
2018-12-21T20:52:56.792Z,6.10
2018-12-21T20:55:32.461Z,5.77
2018-12-21T20:58:11.834Z,5.53
2018-12-21T21:00:43.819Z,6.00
2018-12-21T21:03:13.807Z,5.73
2018-12-21T21:05:45.724Z,6.10
2018-12-21T21:08:15.610Z,6.17
2018-12-21T21:10:47.651Z,5.40
2018-12-21T21:13:25.654Z,6.20
2018-12-21T21:15:56.035Z,5.83
2018-12-21T21:18:28.086Z,6.03
2018-12-21T21:20:59.191Z,5.70
2018-12-21T21:23:30.683Z,6.60
2018-12-21T21:26:01.182Z,5.60
2018-12-21T21:28:31.031Z,6.50
2018-12-21T21:31:00.347Z,5.87
2018-12-21T21:33:29.681Z,6.47
2018-12-21T21:36:00.671Z,5.87
2018-12-21T21:38:30.995Z,5.60
2018-12-21T21:41:01.073Z,6.80
2018-12-21T21:43:30.312Z,5.73
2018-12-21T21:46:00.662Z,6.17
2018-12-21T21:48:31.760Z,6.40
2018-12-21T21:51:03.083Z,5.57
2018-12-21T21:53:36.920Z,5.77
2018-12-21T21:56:07.145Z,6.23
2018-12-21T21:58:40.727Z,5.30
2018-12-21T22:01:12.965Z,6.70
2018-12-21T22:03:44.317Z,6.67
2018-12-21T22:06:13.809Z,6.47
2018-12-21T22:08:44.022Z,5.80
2018-12-21T22:11:14.348Z,6.20
2018-12-21T22:13:44.492Z,6.70
2018-12-21T22:16:13.851Z,6.03
2018-12-21T22:18:44.634Z,5.43
2018-12-21T22:21:16.392Z,6.20
2018-12-21T22:23:45.820Z,6.30
2018-12-21T22:26:16.412Z,5.77
2018-12-21T22:28:46.609Z,6.10
2018-12-21T22:31:16.794Z,6.23
2018-12-21T22:33:46.060Z,6.17
2018-12-21T22:36:16.422Z,6.17
2018-12-21T22:38:47.946Z,6.10
2018-12-21T22:41:18.384Z,5.83
2018-12-21T22:43:48.018Z,6.57
2018-12-21T22:46:19.636Z,6.77
2018-12-21T22:48:52.458Z,5.97
2018-12-21T22:51:22.485Z,6.07
2018-12-21T22:53:53.317Z,6.00
2018-12-21T22:56:25.814Z,5.43
2018-12-21T22:58:56.629Z,6.07
2018-12-21T23:01:26.612Z,7.20
2018-12-21T23:03:56.539Z,6.00
2018-12-21T23:06:26.366Z,5.90
2018-12-21T23:08:55.755Z,5.60
2018-12-21T23:11:25.558Z,5.20
2018-12-21T23:13:55.920Z,6.50
2018-12-21T23:16:26.417Z,6.17
2018-12-21T23:18:56.017Z,5.90
2018-12-21T23:21:25.468Z,6.20
2018-12-21T23:23:55.207Z,6.07
2018-12-21T23:26:27.142Z,5.43
2018-12-21T23:28:58.202Z,5.80
2018-12-21T23:31:28.202Z,5.40
2018-12-21T23:33:57.478Z,6.50
2018-12-21T23:36:29.059Z,5.83
2018-12-21T23:39:01.925Z,5.57
2018-12-21T23:41:34.910Z,6.03
2018-12-21T23:44:04.164Z,6.00
2018-12-21T23:46:33.491Z,6.13
2018-12-21T23:49:03.556Z,5.70
2018-12-21T23:51:32.857Z,5.83
2018-12-21T23:54:02.408Z,6.40
2018-12-21T23:56:31.724Z,5.93
2018-12-21T23:59:01.000Z,5.37
